createdAt,value
2024-01-04T00:00:01.616Z,38.70
2024-01-04T00:02:37.513Z,38.23
2024-01-04T00:05:09.090Z,38.77
2024-01-04T00:07:43.272Z,38.53
2024-01-04T00:10:15.549Z,40.80
2024-01-04T00:12:46.589Z,39.43
2024-01-04T00:15:16.770Z,39.13
2024-01-04T00:17:47.284Z,38.10
2024-01-04T00:20:18.788Z,36.97
2024-01-04T00:22:51.048Z,34.67
2024-01-04T00:25:21.191Z,33.97
2024-01-04T00:27:51.022Z,33.00
2024-01-04T00:30:21.429Z,30.87
2024-01-04T00:32:51.201Z,31.50
2024-01-04T00:35:21.062Z,31.73
2024-01-04T00:37:52.597Z,30.27
2024-01-04T00:40:23.215Z,31.57
2024-01-04T00:42:53.289Z,29.73
2024-01-04T00:45:23.156Z,27.80
2024-01-04T00:47:52.796Z,27.80
2024-01-04T00:50:22.876Z,28.10
2024-01-04T00:53:03.146Z,26.97
2024-01-04T00:55:36.248Z,25.67
2024-01-04T00:58:07.035Z,25.13
2024-01-04T01:00:36.906Z,25.23
2024-01-04T01:03:08.286Z,24.63
2024-01-04T01:05:39.208Z,24.30
2024-01-04T01:08:11.831Z,22.67
2024-01-04T01:10:41.751Z,22.10
2024-01-04T01:13:11.548Z,21.07
2024-01-04T01:15:41.784Z,21.47
2024-01-04T01:18:13.089Z,23.27
2024-01-04T01:20:44.041Z,22.53
2024-01-04T01:23:15.512Z,19.20
2024-01-04T01:25:45.936Z,18.20
2024-01-04T01:28:17.093Z,18.33
2024-01-04T01:30:48.639Z,17.83
2024-01-04T01:33:18.693Z,18.77
2024-01-04T01:35:48.775Z,18.50
2024-01-04T01:38:19.800Z,18.30
2024-01-04T01:40:50.946Z,16.57
2024-01-04T01:43:21.291Z,18.17
2024-01-04T01:45:51.022Z,17.80
2024-01-04T01:48:20.992Z,17.33
2024-01-04T01:50:51.249Z,16.57
2024-01-04T01:53:23.403Z,16.87
2024-01-04T01:55:53.709Z,16.53
2024-01-04T01:58:24.586Z,16.93
2024-01-04T02:00:56.412Z,15.60
2024-01-04T02:03:26.507Z,16.50
2024-01-04T02:05:56.754Z,16.57
2024-01-04T02:08:29.673Z,15.93
2024-01-04T02:11:01.304Z,16.07
2024-01-04T02:13:31.721Z,15.13
2024-01-04T02:16:02.320Z,15.30
2024-01-04T02:18:33.637Z,16.97
2024-01-04T02:21:04.246Z,15.90
2024-01-04T02:23:36.150Z,15.77
2024-01-04T02:26:06.096Z,15.73
2024-01-04T02:28:36.795Z,16.20
2024-01-04T02:31:06.384Z,15.90
2024-01-04T02:33:36.706Z,16.07
2024-01-04T02:36:08.132Z,16.50
2024-01-04T02:38:40.020Z,17.27
2024-01-04T02:41:10.910Z,17.40
2024-01-04T02:43:40.648Z,17.73
2024-01-04T02:46:10.749Z,17.53
2024-01-04T02:48:41.076Z,17.37
2024-01-04T02:51:11.690Z,17.73
2024-01-04T02:53:43.053Z,17.80
2024-01-04T02:56:13.075Z,17.23
2024-01-04T02:58:46.566Z,17.83
2024-01-04T03:01:22.290Z,18.03
2024-01-04T03:03:53.923Z,18.50
2024-01-04T03:06:25.637Z,18.03
2024-01-04T03:08:58.178Z,17.63
2024-01-04T03:11:28.741Z,18.47
2024-01-04T03:13:58.454Z,18.03
2024-01-04T03:16:28.378Z,18.83
2024-01-04T03:18:58.189Z,18.43
2024-01-04T03:21:28.206Z,19.40
2024-01-04T03:23:59.475Z,19.60
2024-01-04T03:26:29.578Z,20.13
2024-01-04T03:28:59.999Z,21.37
2024-01-04T03:31:29.713Z,21.73
2024-01-04T03:33:59.529Z,22.53
2024-01-04T03:36:29.218Z,23.20
2024-01-04T03:39:00.628Z,24.07
2024-01-04T03:41:30.493Z,23.17
2024-01-04T03:44:00.011Z,24.17
2024-01-04T03:46:29.603Z,25.50
2024-01-04T03:49:00.028Z,26.07
2024-01-04T03:51:29.746Z,25.30
2024-01-04T03:54:01.749Z,25.93
2024-01-04T03:56:32.430Z,25.17
2024-01-04T03:59:02.949Z,26.00
2024-01-04T04:01:32.860Z,27.23
2024-01-04T04:04:02.645Z,28.77
2024-01-04T04:06:33.752Z,28.97
2024-01-04T04:09:06.273Z,29.07
2024-01-04T04:11:37.750Z,30.07
2024-01-04T04:14:10.893Z,31.83
2024-01-04T04:16:43.590Z,33.73
2024-01-04T04:19:13.726Z,32.57
2024-01-04T04:21:43.907Z,33.70
2024-01-04T04:24:15.574Z,33.10
2024-01-04T04:26:45.897Z,35.13
2024-01-04T04:29:16.319Z,32.93
2024-01-04T04:31:46.737Z,32.47
2024-01-04T04:34:17.136Z,31.23
2024-01-04T04:36:46.737Z,30.17
2024-01-04T04:39:18.569Z,29.60
2024-01-04T04:41:48.580Z,29.47
2024-01-04T04:44:18.379Z,28.60
2024-01-04T04:46:47.938Z,28.20
2024-01-04T04:49:17.800Z,28.43
2024-01-04T04:51:50.801Z,30.23
2024-01-04T04:54:22.186Z,30.43
2024-01-04T04:56:52.268Z,29.30
2024-01-04T04:59:22.259Z,30.87
2024-01-04T05:01:51.858Z,29.63
2024-01-04T05:04:22.932Z,28.83
2024-01-04T05:06:53.066Z,29.43
2024-01-04T05:09:24.372Z,29.63
2024-01-04T05:11:55.373Z,30.07
2024-01-04T05:14:25.210Z,29.13
2024-01-04T05:16:56.398Z,27.87
2024-01-04T05:19:26.554Z,30.10
2024-01-04T05:21:56.556Z,28.87
2024-01-04T05:24:28.382Z,27.93
2024-01-04T05:26:58.416Z,28.63
2024-01-04T05:29:29.322Z,27.43
2024-01-04T05:31:59.353Z,29.13
2024-01-04T05:34:30.986Z,28.43
2024-01-04T05:37:01.169Z,28.53
2024-01-04T05:39:32.569Z,28.87
2024-01-04T05:42:02.713Z,30.33
2024-01-04T05:44:32.901Z,30.13
2024-01-04T05:47:02.619Z,29.50
2024-01-04T05:49:32.298Z,33.27
2024-01-04T05:52:02.446Z,29.73
2024-01-04T05:54:34.618Z,35.87
2024-01-04T05:57:04.450Z,32.77
2024-01-04T05:59:34.186Z,32.17
2024-01-04T06:02:03.632Z,33.67
2024-01-04T06:04:33.350Z,31.97
2024-01-04T06:07:03.452Z,30.13
2024-01-04T06:09:34.815Z,28.77
2024-01-04T06:12:04.967Z,30.67
2024-01-04T06:14:35.094Z,31.33
2024-01-04T06:17:05.372Z,33.47
2024-01-04T06:19:35.194Z,32.93
2024-01-04T06:22:04.891Z,32.97
2024-01-04T06:24:36.959Z,32.50
2024-01-04T06:27:07.147Z,33.23
2024-01-04T06:29:38.072Z,32.00
2024-01-04T06:32:09.517Z,32.83
2024-01-04T06:34:40.069Z,33.40
2024-01-04T06:37:11.519Z,33.40
2024-01-04T06:39:51.495Z,33.17
2024-01-04T06:42:23.413Z,33.87
2024-01-04T06:44:53.853Z,35.17
2024-01-04T06:47:23.878Z,34.97
2024-01-04T06:50:03.466Z,33.57
2024-01-04T06:52:40.939Z,36.47
2024-01-04T06:55:16.377Z,35.60
2024-01-04T06:57:46.297Z,36.60
2024-01-04T07:00:16.984Z,36.37
2024-01-04T07:02:47.515Z,35.53
2024-01-04T07:05:17.246Z,36.77
2024-01-04T07:07:47.174Z,37.13
2024-01-04T07:10:19.559Z,35.07
2024-01-04T07:12:50.496Z,36.00
2024-01-04T07:15:20.328Z,35.30
2024-01-04T07:17:50.464Z,35.47
2024-01-04T07:20:23.612Z,34.07
2024-01-04T07:22:55.057Z,35.23
2024-01-04T07:25:27.183Z,35.67
2024-01-04T07:27:57.042Z,34.87
2024-01-04T07:30:26.701Z,34.93
2024-01-04T07:32:56.913Z,34.93
2024-01-04T07:35:26.984Z,33.23
2024-01-04T07:37:56.935Z,35.27
2024-01-04T07:40:28.033Z,35.73
2024-01-04T07:42:57.576Z,35.57
2024-01-04T07:45:27.599Z,34.87
2024-01-04T07:47:57.440Z,32.73
2024-01-04T07:50:28.635Z,32.63
2024-01-04T07:52:58.432Z,35.93
2024-01-04T07:55:30.058Z,35.27
2024-01-04T07:57:59.713Z,36.30
2024-01-04T08:00:29.473Z,35.27
2024-01-04T08:02:59.249Z,36.97
2024-01-04T08:05:28.736Z,36.70
2024-01-04T08:07:58.635Z,36.73
2024-01-04T08:10:29.891Z,37.77
2024-01-04T08:13:01.133Z,37.80
2024-01-04T08:15:35.090Z,38.93
2024-01-04T08:18:07.528Z,40.20
2024-01-04T08:20:38.077Z,38.93
2024-01-04T08:23:08.178Z,39.80
2024-01-04T08:25:40.225Z,41.10
2024-01-04T08:28:11.375Z,39.63
2024-01-04T08:30:41.425Z,31.93
2024-01-04T08:33:11.848Z,29.07
2024-01-04T08:35:41.941Z,35.80
2024-01-04T08:38:12.241Z,29.70
2024-01-04T08:40:43.919Z,29.60
2024-01-04T08:43:16.786Z,31.03
2024-01-04T08:45:46.941Z,34.03
2024-01-04T08:48:17.710Z,34.60
2024-01-04T08:50:47.997Z,35.77
2024-01-04T08:53:22.172Z,38.73
2024-01-04T08:55:53.976Z,40.00
2024-01-04T08:58:23.546Z,40.87
2024-01-04T09:00:54.246Z,43.70
2024-01-04T09:03:24.561Z,45.77
2024-01-04T09:05:54.845Z,47.47
2024-01-04T09:08:25.235Z,46.60
2024-01-04T09:10:56.589Z,44.77
2024-01-04T09:13:27.032Z,45.03
2024-01-04T09:15:57.263Z,45.50
2024-01-04T09:18:27.618Z,42.23
2024-01-04T09:20:57.388Z,42.70
2024-01-04T09:23:26.907Z,43.93
2024-01-04T09:25:58.757Z,41.17
2024-01-04T09:28:29.578Z,40.30
2024-01-04T09:30:59.577Z,40.23
2024-01-04T09:33:30.153Z,37.27
2024-01-04T09:36:00.503Z,37.03
2024-01-04T09:38:30.584Z,38.47
2024-01-04T09:41:15.653Z,37.77
2024-01-04T09:43:46.063Z,36.87
2024-01-04T09:46:23.176Z,36.73
2024-01-04T09:48:59.919Z,38.53
2024-01-04T09:51:32.161Z,40.03
2024-01-04T09:54:02.432Z,44.13
2024-01-04T09:56:34.680Z,41.20
2024-01-04T09:59:04.386Z,41.87
2024-01-04T10:01:37.996Z,40.50
2024-01-04T10:04:11.949Z,42.50
2024-01-04T10:06:43.247Z,40.23
2024-01-04T10:09:22.637Z,40.23
2024-01-04T10:12:04.378Z,40.53
2024-01-04T10:14:35.526Z,40.07
2024-01-04T10:17:06.224Z,41.53
2024-01-04T10:19:37.484Z,42.70
2024-01-04T10:22:10.277Z,41.10
2024-01-04T10:24:43.178Z,43.50
2024-01-04T10:27:18.510Z,46.57
2024-01-04T10:29:53.060Z,43.90
2024-01-04T10:32:23.295Z,42.80
2024-01-04T10:34:52.804Z,42.93
2024-01-04T10:37:23.927Z,42.20
2024-01-04T10:39:59.535Z,41.53
2024-01-04T10:42:31.046Z,42.07
2024-01-04T10:45:02.864Z,39.80
2024-01-04T10:47:32.712Z,40.93
2024-01-04T10:50:05.043Z,42.03
2024-01-04T10:52:35.665Z,40.40
2024-01-04T10:55:07.626Z,38.97
2024-01-04T10:57:40.716Z,37.43
2024-01-04T11:00:13.050Z,36.73
2024-01-04T11:02:43.762Z,35.90
2024-01-04T11:05:14.679Z,38.27
2024-01-04T11:07:46.518Z,38.03
2024-01-04T11:10:17.755Z,36.57
2024-01-04T11:12:50.897Z,38.40
2024-01-04T11:15:21.920Z,35.07
2024-01-04T11:18:06.532Z,33.03
2024-01-04T11:20:52.461Z,36.93
2024-01-04T11:23:40.056Z,36.43
2024-01-04T11:26:29.129Z,39.20
2024-01-04T11:29:08.258Z,41.07
2024-01-04T11:31:46.042Z,46.90
2024-01-04T11:34:19.533Z,42.37
2024-01-04T11:36:50.705Z,46.57
2024-01-04T11:39:29.156Z,48.63
2024-01-04T11:41:58.869Z,52.33
2024-01-04T11:44:38.671Z,54.50
2024-01-04T11:47:15.776Z,54.00
2024-01-04T11:49:56.213Z,57.73
2024-01-04T11:52:32.686Z,59.57
2024-01-04T11:55:02.705Z,61.83
2024-01-04T11:57:33.692Z,61.03
2024-01-04T12:00:15.623Z,57.57
2024-01-04T12:02:45.782Z,60.73
2024-01-04T12:05:21.485Z,55.53
2024-01-04T12:07:51.227Z,57.13
2024-01-04T12:10:22.070Z,55.17
2024-01-04T12:12:51.766Z,57.00
2024-01-04T12:15:24.723Z,52.77
2024-01-04T12:17:55.199Z,52.43
2024-01-04T12:20:25.398Z,50.90
2024-01-04T12:22:54.978Z,49.53
2024-01-04T12:25:24.910Z,51.17
2024-01-04T12:27:54.945Z,46.50
2024-01-04T12:30:27.639Z,45.47
2024-01-04T12:32:59.213Z,41.03
2024-01-04T12:35:29.425Z,43.73
2024-01-04T12:38:02.970Z,41.33
2024-01-04T12:40:42.831Z,40.97
2024-01-04T12:43:14.492Z,38.53
2024-01-04T12:45:45.541Z,39.00
2024-01-04T12:48:15.902Z,38.30
2024-01-04T12:50:46.199Z,39.80
2024-01-04T12:53:16.801Z,38.53
2024-01-04T12:55:47.960Z,37.30
2024-01-04T12:58:17.967Z,34.93
2024-01-04T13:00:50.517Z,33.70
2024-01-04T13:03:20.318Z,33.17
2024-01-04T13:05:50.339Z,34.80
2024-01-04T13:08:20.590Z,32.67
2024-01-04T13:10:58.842Z,34.73
2024-01-04T13:13:32.971Z,33.10
2024-01-04T13:16:05.088Z,32.53
2024-01-04T13:18:35.251Z,32.50
2024-01-04T13:21:05.622Z,30.93
2024-01-04T13:23:36.044Z,31.50
2024-01-04T13:26:06.525Z,33.77
2024-01-04T13:28:36.388Z,32.03
2024-01-04T13:31:08.899Z,33.77
2024-01-04T13:33:40.323Z,33.20
2024-01-04T13:36:10.550Z,31.27
2024-01-04T13:38:41.249Z,30.30
2024-01-04T13:41:11.094Z,31.00
2024-01-04T13:43:41.311Z,31.63
2024-01-04T13:46:13.672Z,31.70
2024-01-04T13:48:44.683Z,32.33
2024-01-04T13:51:14.968Z,32.13
2024-01-04T13:53:45.325Z,30.87
2024-01-04T13:56:17.428Z,31.77
2024-01-04T13:58:47.144Z,32.43
2024-01-04T14:01:19.538Z,30.95
2024-01-04T14:03:49.832Z,31.75
2024-01-04T14:06:19.856Z,33.08
2024-01-04T14:08:55.970Z,32.70
2024-01-04T14:11:25.925Z,33.55
2024-01-04T14:13:55.736Z,34.70
2024-01-04T14:16:27.194Z,32.65
2024-01-04T14:18:57.659Z,32.83
2024-01-04T14:21:27.717Z,33.22
2024-01-04T14:23:57.728Z,32.53
2024-01-04T14:26:29.191Z,33.67
2024-01-04T14:29:00.551Z,32.13
2024-01-04T14:31:31.648Z,30.80
2024-01-04T14:34:02.969Z,30.33
2024-01-04T14:36:35.112Z,29.57
2024-01-04T14:39:06.321Z,30.50
2024-01-04T14:41:36.992Z,30.60
2024-01-04T14:44:07.006Z,31.80
2024-01-04T14:46:38.254Z,32.57
2024-01-04T14:49:11.226Z,34.27
2024-01-04T14:51:40.927Z,36.27
2024-01-04T14:54:10.805Z,33.97
2024-01-04T14:56:40.458Z,33.50
2024-01-04T14:59:10.467Z,33.77
2024-01-04T15:01:42.282Z,33.37
2024-01-04T15:04:13.167Z,33.10
2024-01-04T15:06:42.890Z,36.20
2024-01-04T15:09:17.274Z,35.87
2024-01-04T15:11:47.378Z,37.07
2024-01-04T15:14:18.965Z,36.80
2024-01-04T15:16:51.159Z,36.87
2024-01-04T15:19:22.992Z,35.47
2024-01-04T15:21:53.537Z,36.50
2024-01-04T15:24:26.473Z,35.63
2024-01-04T15:26:57.853Z,38.43
2024-01-04T15:29:29.396Z,38.07
2024-01-04T15:32:02.198Z,38.43
2024-01-04T15:34:38.277Z,38.73
2024-01-04T15:37:11.607Z,37.07
2024-01-04T15:39:43.522Z,39.10
2024-01-04T15:42:13.664Z,36.23
2024-01-04T15:44:43.527Z,36.73
2024-01-04T15:47:15.306Z,34.73
2024-01-04T15:49:45.255Z,39.10
2024-01-04T15:52:15.529Z,42.50
2024-01-04T15:54:45.371Z,41.77
2024-01-04T15:57:15.047Z,41.70
2024-01-04T15:59:45.430Z,42.63
2024-01-04T16:02:16.877Z,42.67
2024-01-04T16:04:46.949Z,41.00
2024-01-04T16:07:16.805Z,41.83
2024-01-04T16:09:46.582Z,41.87
2024-01-04T16:12:16.480Z,42.17
2024-01-04T16:14:48.309Z,42.63
2024-01-04T16:17:20.516Z,41.97
2024-01-04T16:19:50.796Z,42.00
2024-01-04T16:22:20.278Z,40.87
2024-01-04T16:24:50.679Z,40.43
2024-01-04T16:27:21.933Z,41.67
2024-01-04T16:29:52.355Z,46.17
2024-01-04T16:32:23.486Z,45.07
2024-01-04T16:34:54.154Z,46.70
2024-01-04T16:37:24.202Z,45.97
2024-01-04T16:39:55.208Z,45.33
2024-01-04T16:42:25.106Z,44.27
2024-01-04T16:44:55.457Z,43.23
2024-01-04T16:47:26.551Z,42.37
2024-01-04T16:49:58.036Z,47.47
2024-01-04T16:52:28.123Z,52.17
2024-01-04T16:54:58.447Z,51.50
2024-01-04T16:57:29.745Z,55.60
2024-01-04T16:59:59.693Z,53.10
2024-01-04T17:02:31.273Z,57.30
2024-01-04T17:05:01.629Z,57.07
2024-01-04T17:07:31.296Z,55.77
2024-01-04T17:10:01.511Z,56.27
2024-01-04T17:12:31.481Z,54.87
2024-01-04T17:15:01.659Z,55.40
2024-01-04T17:17:33.567Z,60.40
2024-01-04T17:20:03.876Z,60.97
2024-01-04T17:22:34.272Z,60.80
2024-01-04T17:25:05.104Z,59.30
2024-01-04T17:27:35.152Z,65.17
2024-01-04T17:30:05.468Z,67.17
2024-01-04T17:32:37.782Z,64.07
2024-01-04T17:40:23.714Z,72.43
2024-01-04T17:43:00.517Z,64.17
2024-01-04T17:45:30.399Z,61.37
2024-01-04T17:48:01.620Z,63.03
2024-01-04T17:50:31.379Z,59.00
2024-01-04T17:53:01.508Z,59.07
2024-01-04T17:55:32.323Z,60.53
2024-01-04T17:58:02.043Z,61.00
2024-01-04T18:00:31.568Z,59.33
2024-01-04T18:03:02.969Z,62.17
2024-01-04T18:05:33.050Z,59.97
2024-01-04T18:08:03.039Z,62.87
2024-01-04T18:10:33.557Z,60.93
2024-01-04T18:13:04.429Z,60.80
2024-01-04T18:15:34.901Z,59.50
2024-01-04T18:18:07.387Z,61.27
2024-01-04T18:20:39.463Z,61.23
2024-01-04T18:23:09.483Z,62.70
2024-01-04T18:25:40.385Z,61.67
2024-01-04T18:28:10.639Z,66.40
2024-01-04T18:30:40.496Z,61.67
2024-01-04T18:33:12.161Z,65.60
2024-01-04T18:35:44.815Z,70.80
2024-01-04T18:38:14.628Z,67.53
2024-01-04T18:40:45.023Z,62.57
2024-01-04T18:43:14.830Z,60.57
2024-01-04T18:45:44.538Z,77.07
2024-01-04T18:48:15.877Z,82.37
2024-01-04T18:50:46.039Z,88.17
2024-01-04T18:53:16.745Z,69.83
2024-01-04T18:55:46.863Z,73.13
2024-01-04T18:58:16.951Z,76.57
2024-01-04T19:00:46.470Z,78.10
2024-01-04T19:03:18.274Z,76.43
2024-01-04T19:05:48.465Z,73.57
2024-01-04T19:08:18.967Z,73.27
2024-01-04T19:10:48.911Z,77.67
2024-01-04T19:13:18.867Z,77.13
2024-01-04T19:15:57.057Z,71.50
2024-01-04T19:18:32.065Z,71.00
2024-01-04T19:21:02.418Z,70.27
2024-01-04T19:23:32.509Z,68.83
2024-01-04T19:26:02.618Z,66.20
2024-01-04T19:28:32.898Z,69.37
2024-01-04T19:31:02.716Z,67.87
2024-01-04T19:33:35.256Z,91.03
2024-01-04T19:36:06.109Z,79.73
2024-01-04T19:38:35.926Z,76.90
2024-01-04T19:41:05.484Z,74.27
2024-01-04T19:43:36.329Z,72.37
2024-01-04T19:46:10.966Z,73.97
2024-01-04T19:48:44.377Z,74.27
2024-01-04T19:51:14.484Z,74.17
2024-01-04T19:53:45.341Z,77.30
2024-01-04T19:56:16.954Z,88.63
2024-01-04T19:58:47.932Z,84.50
2024-01-04T20:01:19.701Z,90.97
2024-01-04T20:03:52.613Z,80.93
2024-01-04T20:06:24.008Z,77.27
2024-01-04T20:08:54.123Z,73.77
2024-01-04T20:11:25.653Z,71.33
2024-01-04T20:13:56.607Z,67.77
2024-01-04T20:16:27.365Z,61.37
2024-01-04T20:18:59.271Z,65.00
2024-01-04T20:21:30.001Z,69.47
2024-01-04T20:23:59.874Z,68.47
2024-01-04T20:26:29.957Z,67.67
2024-01-04T20:29:02.920Z,68.93
2024-01-04T20:31:35.154Z,69.07
2024-01-04T20:34:06.800Z,70.37
2024-01-04T20:36:37.374Z,66.67
2024-01-04T20:39:08.188Z,66.53
2024-01-04T20:41:39.185Z,67.77
2024-01-04T20:44:09.386Z,61.83
2024-01-04T20:46:40.982Z,63.80
2024-01-04T20:49:12.848Z,62.90
2024-01-04T20:51:47.712Z,60.37
2024-01-04T20:54:20.359Z,64.27
2024-01-04T20:56:53.092Z,58.97
2024-01-04T20:59:26.186Z,59.37
2024-01-04T21:01:56.630Z,61.33
2024-01-04T21:04:31.193Z,60.57
2024-01-04T21:07:01.897Z,57.17
2024-01-04T21:09:33.007Z,54.90
2024-01-04T21:12:05.706Z,56.23
2024-01-04T21:14:36.235Z,52.53
2024-01-04T21:17:06.047Z,52.70
2024-01-04T21:19:38.080Z,52.50
2024-01-04T21:22:08.843Z,50.80
2024-01-04T21:24:38.787Z,51.07
2024-01-04T21:27:08.713Z,52.50
2024-01-04T21:29:38.906Z,50.77
2024-01-04T21:32:09.007Z,52.30
2024-01-04T21:34:40.575Z,50.87
2024-01-04T21:37:10.574Z,50.77
2024-01-04T21:39:41.718Z,51.07
2024-01-04T21:42:13.912Z,53.13
2024-01-04T21:44:43.682Z,56.90
2024-01-04T21:47:13.603Z,57.00
2024-01-04T21:49:45.625Z,53.27
2024-01-04T21:52:15.773Z,54.00
2024-01-04T21:54:48.210Z,51.97
2024-01-04T21:57:19.679Z,52.50
2024-01-04T21:59:49.353Z,51.80
2024-01-04T22:02:21.204Z,51.57
2024-01-04T22:04:52.961Z,49.10
2024-01-04T22:07:23.344Z,51.93
2024-01-04T22:09:53.161Z,50.10
2024-01-04T22:12:22.694Z,50.43
2024-01-04T22:14:52.647Z,50.03
2024-01-04T22:17:24.331Z,52.07
2024-01-04T22:19:55.568Z,66.93
2024-01-04T22:22:25.919Z,58.33
2024-01-04T22:24:56.444Z,56.07
2024-01-04T22:27:26.385Z,59.27
2024-01-04T22:29:57.334Z,51.77
2024-01-04T22:32:27.519Z,50.33
2024-01-04T22:35:02.171Z,48.13
2024-01-04T22:37:32.887Z,46.13
2024-01-04T22:40:02.565Z,46.20
2024-01-04T22:42:32.297Z,46.10
2024-01-04T22:45:02.407Z,46.97
2024-01-04T22:47:32.561Z,49.77
2024-01-04T22:50:04.892Z,50.43
2024-01-04T22:52:35.115Z,53.57
2024-01-04T22:55:05.553Z,51.97
2024-01-04T22:57:35.379Z,52.40
2024-01-04T23:00:05.741Z,58.07
2024-01-04T23:02:36.114Z,56.80
2024-01-04T23:05:07.807Z,61.67
2024-01-04T23:07:38.543Z,52.87
2024-01-04T23:10:08.714Z,48.20
2024-01-04T23:12:38.448Z,47.97
2024-01-04T23:15:08.870Z,45.63
2024-01-04T23:17:39.212Z,42.27
2024-01-04T23:20:11.662Z,43.10
2024-01-04T23:22:41.781Z,43.80
2024-01-04T23:25:13.533Z,42.87
2024-01-04T23:27:43.064Z,40.97
2024-01-04T23:30:14.139Z,41.90
2024-01-04T23:32:44.325Z,40.03
2024-01-04T23:35:15.939Z,40.33
2024-01-04T23:37:46.176Z,41.53
2024-01-04T23:40:15.996Z,40.40
2024-01-04T23:42:45.680Z,39.70
2024-01-04T23:45:15.791Z,39.90
2024-01-04T23:47:46.149Z,40.10
2024-01-04T23:50:17.995Z,53.03
2024-01-04T23:52:47.907Z,44.53
2024-01-04T23:55:18.026Z,44.03
2024-01-04T23:57:47.649Z,40.50
